Lake Pleasant, Massachusetts
Current Conditions -  °F | °C
As of 2:29 AM on Saturday 29 Nov 2014 (Local Time) from KORE Reporting Station
Haze Haze  
Wind Chill:   Ceiling: Unl
Heat Index: 11°   Visibility: 4mi
Dew Point:   Wind: 5mph
Humidity: 88%   Direction: 210°SSW
Pressure: 30.23"   Gusts: NA
Location:  42.56°N, 72.52°W
Report Text: KORE 290729Z AUTO 21004KT 4SM BR CLR M12/M13 A3023 RMK AO2 I1000 T11171133
Loading
Personal Weather Stations






























Interactive Weather Map New forecast layout! Learn more

10-Day Weather Forecast

Advertisements
Track Severe Weather on mobile